createdAt,value
2023-05-25T03:18:00.564Z,4131.7
2023-05-25T03:19:00.537Z,4362.3
2023-05-25T03:20:01.252Z,4592.9
2023-05-25T03:21:00.503Z,4839.4
2023-05-25T03:22:00.521Z,5085.9
2023-05-25T03:23:00.506Z,5346.3
2023-05-25T03:24:00.515Z,5606.7
2023-05-25T03:25:01.385Z,5867.1
2023-05-25T03:27:00.506Z,6408.6
2023-05-25T03:28:00.508Z,6687.5
2023-05-25T03:29:00.511Z,6966.3
2023-05-25T03:32:00.684Z,7818.4
2023-05-25T03:33:00.571Z,8111.4
2023-05-25T03:34:00.534Z,8404.4
2023-05-25T03:35:00.763Z,8697.4
2023-05-25T03:36:00.537Z,8995.3
2023-05-25T03:37:00.510Z,9293.3
2023-05-25T03:38:00.510Z,9594.1
2023-05-25T03:39:00.512Z,9895.0
2023-05-25T03:40:00.733Z,10195.9
2023-05-25T03:41:00.509Z,10502.1
2023-05-25T03:42:00.508Z,10808.3
2023-05-25T03:43:00.514Z,11112.9
2023-05-25T03:44:00.583Z,11417.6
2023-05-25T03:45:01.399Z,11722.3
2023-05-25T03:47:00.512Z,12341.7
2023-05-25T03:48:00.546Z,12651.4
2023-05-25T03:49:00.525Z,12961.1
2023-05-25T03:50:00.774Z,13270.7
2023-05-25T03:51:00.519Z,13581.9
2023-05-25T03:52:00.515Z,13893.0
2023-05-25T03:53:00.532Z,14199.7
2023-05-25T03:54:00.533Z,14506.5
2023-05-25T03:55:00.761Z,14813.2
2023-05-25T03:56:00.522Z,15117.1
2023-05-25T03:57:00.540Z,15420.9
2023-05-25T03:58:00.522Z,15730.1
2023-05-25T03:59:00.516Z,16039.3
2023-05-25T04:02:00.536Z,16955.6
2023-05-25T04:03:00.610Z,17264.6
2023-05-25T04:04:00.591Z,17573.6
2023-05-25T04:05:00.726Z,17882.6
2023-05-25T04:06:00.710Z,18193.6
2023-05-25T04:07:00.525Z,18504.6
2023-05-25T04:08:00.615Z,18812.6
2023-05-25T04:09:00.515Z,19120.6
2023-05-25T04:10:01.392Z,19428.6
2023-05-25T04:12:00.548Z,20028.6
2023-05-25T04:13:00.527Z,20320.1
2023-05-25T04:14:00.530Z,20611.7
2023-05-25T04:15:01.296Z,20903.2
2023-05-25T04:17:00.542Z,21478.9
2023-05-25T04:18:00.542Z,21761.6
2023-05-25T04:19:00.526Z,22044.3
2023-05-25T04:20:00.780Z,22326.9
2023-05-25T04:21:00.523Z,22609.1
2023-05-25T04:22:00.544Z,22891.2
2023-05-25T04:23:00.523Z,23185.9
2023-05-25T04:24:00.529Z,23480.7
2023-05-25T04:25:01.392Z,23775.4
2023-05-25T04:27:00.526Z,24388.9
2023-05-25T04:28:00.529Z,24724.7
2023-05-25T04:29:00.524Z,25060.6
2023-05-25T04:30:02.223Z,25396.5
2023-05-25T04:32:00.583Z,26069.8
2023-05-25T04:33:00.553Z,26410.6
2023-05-25T04:34:00.527Z,26751.4
2023-05-25T04:35:01.371Z,27092.2
2023-05-25T04:37:00.524Z,27784.9
2023-05-25T04:38:00.554Z,28157.5
2023-05-25T04:39:00.522Z,28530.2
2023-05-25T04:42:00.520Z,29666.7
2023-05-25T04:43:00.527Z,30025.2
2023-05-25T04:45:01.345Z,30742.1
2023-05-25T04:47:00.528Z,31473.7
2023-05-25T04:48:00.533Z,31853.2
2023-05-25T04:49:00.525Z,32232.7
2023-05-25T04:52:00.523Z,33424.9
2023-05-25T04:53:00.533Z,34371.6
2023-05-25T04:54:00.560Z,35318.3
2023-05-25T04:55:01.535Z,36264.9
2023-05-25T04:57:00.596Z,38495.2
2023-05-25T04:58:00.530Z,39636.7
2023-05-25T04:59:00.526Z,40778.1
2023-05-25T05:02:00.529Z,44366.3
2023-05-25T05:03:00.580Z,45422.2
2023-05-25T05:04:00.572Z,46478.1
2023-05-25T05:05:01.602Z,47534.1
2023-05-25T05:07:00.549Z,49723.1
2023-05-25T05:08:00.539Z,50179.1
2023-05-25T05:09:00.538Z,50635.1
2023-05-25T05:10:01.556Z,51091.1
2023-05-25T05:12:00.533Z,51766.2
2023-05-25T05:13:00.548Z,51705.7
2023-05-25T05:14:00.556Z,51645.3
2023-05-25T05:15:01.441Z,51584.8
2023-05-25T05:17:00.560Z,50940.5
2023-05-25T05:18:00.634Z,51545.6
2023-05-25T05:19:00.538Z,52150.7
2023-05-25T05:20:02.007Z,52755.7
2023-05-25T05:22:00.623Z,53998.7
2023-05-25T05:23:00.538Z,54881.2
2023-05-25T05:24:00.550Z,55763.7
2023-05-25T05:25:01.742Z,56646.3
2023-05-25T05:26:00.561Z,57238.9
2023-05-25T05:27:01.559Z,57831.6
2023-05-25T05:28:00.576Z,58921.2
2023-05-25T05:29:00.540Z,60010.8
2023-05-25T05:32:00.543Z,63530.8
2023-05-25T05:33:00.606Z,63917.9
2023-05-25T05:34:00.589Z,64305.1
2023-05-25T05:35:01.406Z,64692.2
2023-05-25T05:36:00.546Z,64937.7
2023-05-25T05:37:00.557Z,65183.3
2023-05-25T05:38:00.559Z,65116.3
2023-05-25T05:39:00.547Z,65049.3
2023-05-25T05:42:00.571Z,65401.0
2023-05-25T06:15:01.597Z,65535.0
2023-05-25T07:10:01.394Z,65535.0
2023-05-25T07:15:01.509Z,65535.0
2023-05-25T08:00:04.808Z,65535.0
2023-05-25T09:40:01.278Z,65535.0
2023-05-25T10:00:01.486Z,65535.0
2023-05-25T11:15:02.503Z,65535.0
2023-05-25T11:30:01.824Z,65535.0
2023-05-25T11:45:01.763Z,65535.0
2023-05-25T12:50:01.433Z,65535.0
2023-05-25T13:00:03.252Z,65535.0
2023-05-25T13:15:01.459Z,65535.0
2023-05-25T13:45:01.433Z,65535.0
2023-05-25T14:40:02.000Z,65535.0
2023-05-25T14:45:01.598Z,65535.0
2023-05-25T15:15:01.567Z,65535.0
2023-05-25T15:30:01.478Z,65535.0
2023-05-25T15:45:01.805Z,65535.0
2023-05-25T16:42:00.929Z,63507.7
2023-05-25T16:43:00.939Z,63448.8
2023-05-25T16:44:00.936Z,63258.4
2023-05-25T16:47:00.945Z,62817.9
2023-05-25T16:48:00.979Z,62713.3
2023-05-25T16:49:00.929Z,62574.7
2023-05-25T16:52:00.935Z,62194.0
2023-05-25T16:53:00.950Z,62089.0
2023-05-25T16:54:00.936Z,61962.7
2023-05-25T16:57:00.939Z,61276.1
2023-05-25T16:58:00.933Z,61058.9
2023-05-25T16:59:00.934Z,60887.0
2023-05-25T17:02:00.968Z,60417.5
2023-05-25T17:03:00.972Z,60268.7
2023-05-25T17:04:01.178Z,60131.5
2023-05-25T17:07:00.962Z,59768.3
2023-05-25T17:08:00.950Z,59655.4
2023-05-25T17:30:01.655Z,51798.0
2023-05-25T17:32:00.599Z,50964.7
2023-05-25T17:33:00.572Z,50860.5
2023-05-25T17:34:00.657Z,50675.8
2023-05-25T17:35:00.806Z,50552.7
2023-05-25T17:36:00.557Z,50263.0
2023-05-25T17:37:00.548Z,50045.8
2023-05-25T17:38:00.553Z,49876.8
2023-05-25T17:39:00.576Z,49604.3
2023-05-25T17:42:00.554Z,48684.1
2023-05-25T17:43:00.552Z,48410.1
2023-05-25T17:44:00.558Z,48072.6
2023-05-25T17:45:01.369Z,47509.2
2023-05-25T17:47:00.553Z,46372.5
2023-05-25T17:48:00.571Z,45804.2
2023-05-25T17:49:00.553Z,45185.8
2023-05-25T17:52:00.559Z,43360.5
2023-05-25T17:53:00.556Z,42757.0
2023-05-25T17:54:00.565Z,42165.9
2023-05-25T17:55:01.615Z,41574.9
2023-05-25T17:57:00.560Z,40544.1
2023-05-25T17:58:00.569Z,40028.7
2023-05-25T17:59:00.555Z,39534.6
2023-05-25T18:02:00.669Z,38082.7
2023-05-25T18:03:00.593Z,37603.7
2023-05-25T18:04:00.684Z,37145.5
2023-05-25T18:05:01.429Z,36687.2
2023-05-25T18:07:00.557Z,35783.5
2023-05-25T18:08:00.556Z,35331.6
2023-05-25T18:09:00.568Z,34885.7
2023-05-25T18:10:01.416Z,34439.9
2023-05-25T18:12:00.567Z,33554.0
2023-05-25T18:13:00.569Z,33111.1
2023-05-25T18:14:00.564Z,32670.9
2023-05-25T18:15:01.285Z,32230.7
2023-05-25T18:17:00.595Z,31346.9
2023-05-25T18:18:00.636Z,30905.1
2023-05-25T18:19:00.581Z,30463.2
2023-05-25T18:20:01.510Z,30021.3
2023-05-25T18:22:00.566Z,29148.1
2023-05-25T18:23:00.572Z,28711.5
2023-05-25T18:24:00.566Z,28280.5
2023-05-25T18:27:00.563Z,27001.8
2023-05-25T18:28:00.558Z,26577.9
2023-05-25T18:29:00.573Z,26162.3
2023-05-25T18:32:00.580Z,24935.5
2023-05-25T18:33:00.616Z,24530.0
2023-05-25T18:52:00.475Z,14906.3
2023-05-25T18:53:00.470Z,14825.8
2023-05-25T18:54:00.462Z,14586.0
2023-05-25T18:55:00.633Z,14426.2
2023-05-25T18:56:00.472Z,14175.6
2023-05-25T18:57:00.481Z,13987.6
2023-05-25T18:58:00.475Z,13841.4
2023-05-25T18:59:00.480Z,13632.2
2023-05-25T19:02:00.569Z,13058.5
2023-05-25T19:03:00.554Z,12900.4
2023-05-25T19:04:00.511Z,12705.9
2023-05-25T19:05:01.349Z,12334.6
2023-05-25T19:07:00.477Z,11609.7
2023-05-25T19:08:00.465Z,11247.2
2023-05-25T19:09:00.471Z,10895.3
2023-05-25T19:10:00.685Z,10543.3
2023-05-25T19:11:00.467Z,10204.0
2023-05-25T19:12:00.468Z,9864.7
2023-05-25T19:13:00.469Z,9525.3
2023-05-25T19:14:00.468Z,9198.4
2023-05-25T19:17:00.569Z,8243.6
2023-05-25T19:18:00.564Z,7929.7
2023-05-25T19:19:00.481Z,7628.1
2023-05-25T19:20:01.480Z,7326.5
2023-05-25T19:22:00.592Z,6748.7
2023-05-25T19:23:00.469Z,6459.9
2023-05-25T19:24:00.467Z,6184.1
2023-05-25T19:25:02.080Z,5908.3
2023-05-25T19:27:00.475Z,5384.3
2023-05-25T19:28:00.529Z,5122.3
2023-05-25T19:29:00.540Z,4875.2
2023-05-25T19:30:01.582Z,4628.1
2023-05-25T19:32:00.518Z,4167.1
2023-05-25T19:33:00.498Z,3936.5
2023-05-25T19:34:00.481Z,3724.8
2023-05-25T19:35:01.401Z,3513.1
2023-05-25T19:37:10.719Z,3130.1
2023-05-25T19:38:01.843Z,2938.7
2023-05-25T19:39:00.476Z,2766.6
2023-05-25T19:40:01.212Z,2594.5
2023-05-25T19:42:00.478Z,2289.1
2023-05-25T19:43:00.484Z,2136.3
2023-05-25T19:44:00.502Z,2002.3
2023-05-25T19:47:00.480Z,1634.7
2023-05-25T19:48:00.494Z,1517.9
2023-05-25T19:49:00.489Z,1415.7
2023-05-25T19:50:01.276Z,1313.4
2023-05-25T19:52:00.478Z,1133.8
2023-05-25T19:53:00.484Z,1044.0
2023-05-25T19:54:00.578Z,966.5
2023-05-25T19:55:01.580Z,888.9
2023-05-25T19:57:00.487Z,755.9
2023-05-25T19:58:00.479Z,689.3
2023-05-25T19:59:00.491Z,632.7
2023-05-25T20:02:00.486Z,480.9
2023-05-25T20:03:00.566Z,433.4
